createdAt,value
2022-08-07T00:00:30.881Z,8.83
2022-08-07T00:02:58.738Z,8.43
2022-08-07T00:05:28.325Z,8.77
2022-08-07T00:07:59.989Z,7.57
2022-08-07T00:10:29.635Z,7.83
2022-08-07T00:13:01.033Z,7.50
2022-08-07T00:15:38.411Z,7.47
2022-08-07T00:18:19.802Z,7.80
2022-08-07T00:20:52.948Z,9.47
2022-08-07T00:23:22.425Z,7.17
2022-08-07T00:25:52.144Z,7.60
2022-08-07T00:28:33.532Z,7.03
2022-08-07T00:31:05.755Z,7.93
2022-08-07T00:33:35.106Z,7.67
2022-08-07T00:36:03.423Z,10.07
2022-08-07T00:38:34.034Z,7.17
2022-08-07T00:41:02.325Z,8.57
2022-08-07T00:43:59.606Z,8.10
2022-08-07T00:46:17.968Z,6.63
2022-08-07T00:48:45.757Z,8.73
2022-08-07T00:51:18.256Z,6.83
2022-08-07T00:53:50.640Z,12.10
2022-08-07T00:56:30.080Z,10.40
2022-08-07T00:58:59.238Z,8.83
2022-08-07T01:01:27.446Z,8.90
2022-08-07T01:04:00.059Z,9.33
2022-08-07T01:06:29.684Z,10.07
2022-08-07T01:09:00.916Z,6.83
2022-08-07T01:12:23.722Z,7.17
2022-08-07T01:14:21.141Z,6.47
2022-08-07T01:16:50.417Z,7.07
2022-08-07T01:19:22.548Z,7.07
2022-08-07T01:21:56.099Z,8.47
2022-08-07T01:24:32.093Z,8.30
2022-08-07T01:27:02.270Z,8.13
2022-08-07T01:29:33.952Z,7.60
2022-08-07T01:32:05.440Z,6.67
2022-08-07T01:34:34.559Z,7.90
2022-08-07T01:37:17.073Z,6.33
2022-08-07T01:39:48.646Z,7.53
2022-08-07T01:42:39.338Z,7.50
2022-08-07T01:45:22.746Z,7.60
2022-08-07T01:48:19.503Z,9.83
2022-08-07T01:50:49.625Z,8.43
2022-08-07T01:54:08.822Z,6.50
2022-08-07T01:56:14.110Z,9.30
2022-08-07T01:58:47.635Z,7.33
2022-08-07T02:01:25.621Z,5.63
2022-08-07T02:04:12.391Z,6.70
2022-08-07T02:06:43.882Z,7.23
2022-08-07T02:09:52.115Z,8.70
2022-08-07T02:12:18.041Z,8.07
2022-08-07T02:14:54.862Z,7.77
2022-08-07T02:17:49.415Z,8.97
2022-08-07T02:20:23.470Z,6.77
2022-08-07T02:22:59.858Z,7.47
2022-08-07T02:26:30.926Z,8.77
2022-08-07T02:28:25.283Z,7.97
2022-08-07T02:30:59.834Z,7.40
2022-08-07T02:33:57.379Z,9.27
2022-08-07T02:36:33.196Z,7.20
2022-08-07T02:39:16.150Z,8.90
2022-08-07T02:42:10.066Z,7.23
2022-08-07T02:44:48.242Z,6.53
2022-08-07T02:47:45.292Z,7.07
2022-08-07T02:50:14.452Z,8.80
2022-08-07T02:52:48.638Z,9.67
2022-08-07T02:55:27.498Z,8.10
2022-08-07T02:58:05.173Z,7.27
2022-08-07T03:00:35.446Z,8.47
2022-08-07T03:03:07.957Z,8.17
2022-08-07T03:05:45.414Z,8.73
2022-08-07T03:08:14.540Z,7.07
2022-08-07T03:10:47.366Z,7.67
2022-08-07T03:13:22.071Z,10.63
2022-08-07T03:15:56.660Z,7.20
2022-08-07T03:18:34.575Z,7.87
2022-08-07T03:21:08.757Z,8.73
2022-08-07T03:24:20.438Z,9.03
2022-08-07T03:26:32.369Z,8.93
2022-08-07T03:29:11.186Z,9.20
2022-08-07T03:31:46.251Z,7.73
2022-08-07T03:34:21.951Z,7.67
2022-08-07T03:36:54.951Z,6.93
2022-08-07T03:39:59.177Z,7.93
2022-08-07T03:42:18.576Z,6.73
2022-08-07T03:44:53.110Z,6.37
2022-08-07T03:47:22.735Z,7.47
2022-08-07T03:49:52.371Z,7.73
2022-08-07T03:52:27.644Z,8.63
2022-08-07T03:55:06.984Z,11.10
2022-08-07T03:58:35.449Z,8.60
2022-08-07T04:00:37.314Z,8.20
2022-08-07T04:03:06.520Z,7.93
2022-08-07T04:05:42.187Z,10.20
2022-08-07T04:08:21.043Z,8.77
2022-08-07T04:10:54.501Z,7.00
2022-08-07T04:14:09.335Z,7.63
2022-08-07T04:16:32.545Z,8.57
2022-08-07T04:19:15.256Z,6.93
2022-08-07T04:21:59.482Z,6.87
2022-08-07T04:24:41.211Z,7.60
2022-08-07T04:27:20.305Z,8.40
2022-08-07T04:30:02.313Z,6.63
2022-08-07T04:33:07.408Z,8.37
2022-08-07T04:35:37.189Z,7.17
2022-08-07T04:38:11.505Z,7.63
2022-08-07T04:40:52.869Z,7.50
2022-08-07T04:44:12.956Z,8.80
2022-08-07T04:46:34.727Z,8.67
2022-08-07T04:49:18.440Z,9.00
2022-08-07T04:52:00.976Z,8.20
2022-08-07T04:54:36.860Z,9.97
2022-08-07T04:58:10.887Z,8.13
2022-08-07T05:00:14.538Z,8.17
2022-08-07T05:02:57.950Z,9.87
2022-08-07T05:05:53.270Z,8.20
2022-08-07T05:08:59.391Z,8.80
2022-08-07T05:11:26.298Z,7.37
2022-08-07T05:14:53.825Z,8.03
2022-08-07T05:17:11.970Z,8.33
2022-08-07T05:19:45.886Z,8.60
2022-08-07T05:22:27.589Z,8.33
2022-08-07T05:25:00.553Z,9.40
2022-08-07T05:28:03.068Z,9.13
2022-08-07T05:30:32.731Z,8.37
2022-08-07T05:33:04.852Z,10.87
2022-08-07T05:35:41.593Z,12.40
2022-08-07T05:39:01.264Z,10.93
2022-08-07T05:41:12.070Z,10.07
2022-08-07T05:44:07.635Z,11.37
2022-08-07T05:46:33.146Z,9.57
2022-08-07T05:49:01.705Z,10.50
2022-08-07T05:51:42.487Z,12.20
2022-08-07T05:54:31.129Z,11.60
2022-08-07T05:57:03.905Z,8.60
2022-08-07T05:59:56.146Z,9.37
2022-08-07T06:02:32.751Z,11.93
2022-08-07T06:05:10.716Z,10.03
2022-08-07T06:08:29.615Z,8.00
2022-08-07T06:10:32.820Z,7.23
2022-08-07T06:13:02.387Z,8.57
2022-08-07T06:15:38.947Z,8.47
2022-08-07T06:18:12.295Z,10.83
2022-08-07T06:20:49.575Z,10.90
2022-08-07T06:23:46.435Z,7.27
2022-08-07T06:26:08.313Z,8.07
2022-08-07T06:28:49.579Z,5.50
2022-08-07T06:31:24.140Z,7.70
2022-08-07T06:34:07.341Z,6.63
2022-08-07T06:36:36.618Z,5.87
2022-08-07T06:40:17.321Z,7.20
2022-08-07T06:42:05.391Z,7.07
2022-08-07T06:45:11.290Z,6.53
2022-08-07T06:47:57.131Z,7.27
2022-08-07T06:50:30.668Z,6.47
2022-08-07T06:53:04.082Z,7.63
2022-08-07T06:55:53.908Z,7.57
2022-08-07T06:58:28.723Z,5.70
2022-08-07T07:01:07.017Z,7.83
2022-08-07T07:03:49.152Z,5.83
2022-08-07T07:06:23.757Z,6.80
2022-08-07T07:08:57.004Z,7.27
2022-08-07T07:12:07.576Z,8.07
2022-08-07T07:14:18.849Z,5.60
2022-08-07T07:16:53.891Z,5.40
2022-08-07T07:19:54.638Z,5.83
2022-08-07T07:22:36.215Z,4.67
2022-08-07T07:26:30.832Z,6.77
2022-08-07T07:28:03.088Z,7.90
2022-08-07T07:30:39.728Z,6.80
2022-08-07T07:33:12.090Z,8.83
2022-08-07T07:36:04.471Z,7.87
2022-08-07T07:38:33.498Z,5.00
2022-08-07T07:41:08.825Z,6.77
2022-08-07T07:44:14.019Z,8.77
2022-08-07T07:46:38.296Z,6.13
2022-08-07T07:50:29.874Z,8.53
2022-08-07T07:52:10.800Z,5.50
2022-08-07T07:54:40.173Z,6.07
2022-08-07T07:57:43.830Z,7.07
2022-08-07T08:00:12.139Z,5.93
2022-08-07T08:03:05.799Z,5.90
2022-08-07T08:05:54.005Z,5.43
2022-08-07T08:08:34.507Z,6.47
2022-08-07T08:11:05.542Z,5.50
2022-08-07T08:13:54.852Z,5.27
2022-08-07T08:16:30.978Z,5.03
2022-08-07T08:19:17.814Z,6.13
2022-08-07T08:22:09.756Z,8.10
2022-08-07T08:25:11.468Z,6.10
2022-08-07T08:27:56.641Z,6.47
2022-08-07T08:30:26.516Z,7.53
2022-08-07T08:32:59.459Z,6.57
2022-08-07T08:35:42.881Z,6.03
2022-08-07T08:38:17.755Z,4.97
2022-08-07T08:40:54.473Z,4.57
2022-08-07T08:43:32.004Z,5.07
2022-08-07T08:46:17.875Z,5.93
2022-08-07T08:48:54.766Z,5.77
2022-08-07T08:51:49.751Z,5.20
2022-08-07T08:54:23.068Z,6.17
2022-08-07T08:56:54.870Z,7.33
2022-08-07T08:59:28.766Z,5.07
2022-08-07T09:02:09.029Z,7.40
2022-08-07T09:04:44.773Z,7.10
2022-08-07T09:07:27.121Z,6.57
2022-08-07T09:10:02.582Z,5.60
2022-08-07T09:12:54.686Z,8.00
2022-08-07T09:16:21.842Z,5.37
2022-08-07T09:18:47.284Z,4.60
2022-08-07T09:22:10.306Z,5.33
2022-08-07T09:24:59.584Z,5.17
2022-08-07T09:27:54.509Z,5.83
2022-08-07T09:30:28.018Z,6.13
2022-08-07T09:33:16.267Z,5.17
2022-08-07T09:36:05.969Z,3.97
2022-08-07T09:38:50.215Z,4.63
2022-08-07T09:41:36.176Z,5.80
2022-08-07T09:44:30.008Z,4.47
2022-08-07T09:47:42.630Z,4.33
2022-08-07T09:50:19.694Z,6.33
2022-08-07T09:52:51.759Z,4.23
2022-08-07T09:55:29.303Z,3.83
2022-08-07T09:58:32.193Z,4.13
2022-08-07T10:01:14.887Z,5.37
2022-08-07T10:04:03.670Z,5.00
2022-08-07T10:06:56.846Z,3.90
2022-08-07T10:10:00.217Z,4.07
2022-08-07T10:12:56.231Z,5.50
2022-08-07T10:15:56.042Z,5.90
2022-08-07T10:18:52.483Z,6.10
2022-08-07T10:22:12.633Z,4.37
2022-08-07T10:24:47.688Z,5.77
2022-08-07T10:27:46.273Z,4.93
2022-08-07T10:30:17.536Z,4.17
2022-08-07T10:33:08.378Z,6.83
2022-08-07T10:35:55.783Z,4.03
2022-08-07T10:38:48.734Z,5.40
2022-08-07T10:41:51.390Z,4.40
2022-08-07T10:44:19.306Z,5.83
2022-08-07T10:47:02.808Z,5.00
2022-08-07T10:49:49.095Z,4.50
2022-08-07T10:52:33.592Z,4.07
2022-08-07T10:55:26.739Z,6.33
2022-08-07T10:58:10.719Z,4.37
2022-08-07T11:00:56.086Z,3.63
2022-08-07T11:03:37.253Z,4.37
2022-08-07T11:06:21.812Z,4.77
2022-08-07T11:08:57.732Z,3.93
2022-08-07T11:11:30.933Z,4.67
2022-08-07T11:14:43.773Z,3.70
2022-08-07T11:17:07.364Z,3.80
2022-08-07T11:19:44.794Z,3.90
2022-08-07T11:22:32.243Z,3.70
2022-08-07T11:25:11.976Z,4.73
2022-08-07T11:28:01.968Z,3.53
2022-08-07T11:30:42.251Z,3.53
2022-08-07T11:33:48.701Z,3.37
2022-08-07T11:36:25.203Z,3.90
2022-08-07T11:39:10.633Z,3.90
2022-08-07T11:42:02.393Z,4.17
2022-08-07T11:44:52.720Z,4.43
2022-08-07T11:47:55.979Z,3.57
2022-08-07T11:50:57.346Z,3.67
2022-08-07T11:53:37.861Z,3.90
2022-08-07T11:56:28.340Z,3.57
2022-08-07T12:00:08.907Z,4.07
2022-08-07T12:02:01.376Z,4.03
2022-08-07T12:04:45.740Z,4.37
2022-08-07T12:07:27.630Z,4.30
2022-08-07T12:10:13.654Z,4.47
2022-08-07T12:12:48.978Z,3.97
2022-08-07T12:15:46.158Z,4.40
2022-08-07T12:18:16.649Z,4.03
2022-08-07T12:21:01.326Z,5.77
2022-08-07T12:24:07.006Z,4.67
2022-08-07T12:26:40.529Z,3.97
2022-08-07T12:29:37.812Z,4.57
2022-08-07T12:32:15.158Z,3.70
2022-08-07T12:34:49.513Z,5.17
2022-08-07T12:37:27.763Z,3.63
2022-08-07T12:40:36.131Z,4.10
2022-08-07T12:43:09.647Z,3.70
2022-08-07T12:45:50.270Z,4.47
2022-08-07T12:48:52.076Z,4.77
2022-08-07T12:51:22.276Z,3.60
2022-08-07T12:54:02.974Z,3.73
2022-08-07T12:56:46.792Z,3.33
2022-08-07T12:59:23.310Z,4.20
2022-08-07T13:02:10.230Z,4.03
2022-08-07T13:05:14.809Z,3.87
2022-08-07T13:08:13.371Z,3.70
2022-08-07T13:10:59.220Z,3.50
2022-08-07T13:13:46.914Z,4.17
2022-08-07T13:16:25.248Z,4.87
2022-08-07T13:19:21.882Z,4.57
2022-08-07T13:22:12.759Z,3.70
2022-08-07T13:24:54.400Z,3.20
2022-08-07T13:28:05.606Z,3.57
2022-08-07T13:30:19.686Z,4.23
2022-08-07T13:33:16.430Z,3.37
2022-08-07T13:36:05.697Z,4.57
2022-08-07T13:38:42.536Z,4.40
2022-08-07T13:41:27.978Z,3.97
2022-08-07T13:44:01.321Z,3.50
2022-08-07T13:46:37.661Z,4.93
2022-08-07T13:49:08.820Z,4.17
2022-08-07T13:52:18.061Z,3.37
2022-08-07T13:54:49.240Z,7.90
2022-08-07T13:57:23.902Z,6.60
2022-08-07T13:59:55.636Z,3.43
2022-08-07T14:02:33.369Z,4.33
2022-08-07T14:05:10.908Z,4.00
2022-08-07T14:08:00.785Z,4.37
2022-08-07T14:10:42.273Z,4.10
2022-08-07T14:13:16.497Z,7.30
2022-08-07T14:15:51.273Z,4.17
2022-08-07T14:18:28.230Z,4.13
2022-08-07T14:21:08.125Z,5.50
2022-08-07T14:24:00.148Z,4.10
2022-08-07T14:26:34.198Z,3.73
2022-08-07T14:30:07.595Z,3.60
2022-08-07T14:32:00.992Z,5.07
2022-08-07T14:34:31.693Z,5.33
2022-08-07T14:37:01.794Z,4.27
2022-08-07T14:40:17.553Z,4.20
2022-08-07T14:42:31.210Z,4.20
2022-08-07T14:45:21.706Z,4.00
2022-08-07T14:47:58.614Z,3.70
2022-08-07T14:50:28.862Z,5.60
2022-08-07T14:53:07.489Z,5.60
2022-08-07T14:58:32.382Z,3.33
2022-08-07T15:01:21.342Z,3.93
2022-08-07T15:03:52.960Z,4.37
2022-08-07T15:06:25.628Z,5.23
2022-08-07T15:08:54.939Z,4.37
2022-08-07T15:11:50.846Z,3.43
2022-08-07T15:14:21.024Z,6.60
2022-08-07T15:16:55.611Z,3.63
2022-08-07T15:20:31.010Z,5.40
2022-08-07T15:22:29.416Z,3.57
2022-08-07T15:28:33.173Z,5.30
2022-08-07T15:33:39.339Z,4.03
2022-08-07T15:36:11.764Z,5.13
2022-08-07T15:38:51.742Z,3.87
2022-08-07T15:42:44.270Z,3.40
2022-08-07T15:44:23.759Z,4.53
2022-08-07T15:46:58.304Z,3.50
2022-08-07T15:50:04.775Z,4.03
2022-08-07T15:52:30.367Z,3.87
2022-08-07T15:55:02.878Z,5.07
2022-08-07T15:57:39.953Z,3.40
2022-08-07T16:00:31.620Z,4.50
2022-08-07T16:03:05.565Z,4.20
2022-08-07T16:05:34.783Z,3.40
2022-08-07T16:08:31.866Z,3.37
2022-08-07T16:11:02.459Z,3.60
2022-08-07T16:13:59.658Z,3.57
2022-08-07T16:16:47.987Z,3.20
2022-08-07T16:19:42.251Z,3.60
2022-08-07T16:22:36.414Z,3.83
2022-08-07T16:25:23.092Z,4.87
2022-08-07T16:29:18.852Z,3.43
2022-08-07T16:31:50.336Z,4.17
2022-08-07T16:34:25.205Z,3.95
2022-08-07T16:38:05.981Z,3.63
2022-08-07T16:40:56.912Z,4.47
2022-08-07T16:44:06.099Z,3.47
2022-08-07T16:47:15.777Z,3.37
2022-08-07T16:50:36.980Z,3.40
2022-08-07T16:54:02.259Z,3.93
2022-08-07T16:56:37.518Z,5.43
2022-08-07T16:59:10.604Z,3.87
2022-08-07T17:01:56.981Z,5.33
2022-08-07T17:04:35.382Z,3.50
2022-08-07T17:07:28.368Z,4.60
2022-08-07T17:10:32.986Z,4.13
2022-08-07T17:13:17.648Z,5.13
2022-08-07T17:15:52.723Z,3.67
2022-08-07T17:18:32.994Z,3.80
2022-08-07T17:21:19.115Z,3.50
2022-08-07T17:23:58.479Z,4.67
2022-08-07T17:26:35.833Z,3.70
2022-08-07T17:30:15.774Z,4.37
2022-08-07T17:32:30.595Z,5.60
2022-08-07T17:35:51.021Z,5.23
2022-08-07T17:38:05.602Z,3.87
2022-08-07T17:40:50.635Z,3.43
2022-08-07T17:44:02.937Z,4.17
2022-08-07T17:46:22.669Z,5.20
2022-08-07T17:49:09.415Z,3.60
2022-08-07T17:51:49.295Z,3.33
2022-08-07T17:54:53.521Z,3.70
2022-08-07T17:57:56.017Z,3.93
2022-08-07T18:00:33.639Z,5.13
2022-08-07T18:03:18.824Z,3.87
2022-08-07T18:06:02.959Z,4.53
2022-08-07T18:09:00.783Z,5.40
2022-08-07T18:12:16.379Z,4.17
2022-08-07T18:14:33.026Z,4.37
2022-08-07T18:18:45.626Z,3.60
2022-08-07T18:21:08.512Z,4.07
2022-08-07T18:23:41.014Z,4.10
2022-08-07T18:26:02.122Z,4.00
2022-08-07T18:28:58.693Z,4.40
2022-08-07T18:31:49.805Z,4.17
2022-08-07T18:34:37.202Z,4.00
2022-08-07T18:38:55.036Z,4.73
2022-08-07T18:40:42.291Z,4.13
2022-08-07T18:43:16.012Z,3.90
2022-08-07T18:46:24.541Z,3.57
2022-08-07T18:50:31.991Z,4.67
2022-08-07T18:52:33.775Z,4.50
2022-08-07T18:54:42.345Z,5.00
2022-08-07T18:57:31.486Z,3.37
2022-08-07T19:00:32.720Z,4.13
2022-08-07T19:03:03.793Z,4.23
2022-08-07T19:06:01.837Z,7.67
2022-08-07T19:08:39.034Z,5.77
2022-08-07T19:11:36.731Z,5.17
2022-08-07T19:14:08.037Z,5.80
2022-08-07T19:17:06.430Z,5.40
2022-08-07T19:19:42.234Z,3.93
2022-08-07T19:22:31.052Z,4.43
2022-08-07T19:25:06.544Z,3.47
2022-08-07T19:30:53.557Z,6.13
2022-08-07T19:30:58.579Z,4.67
2022-08-07T19:33:33.477Z,3.60
2022-08-07T19:36:04.916Z,5.13
2022-08-07T19:38:53.089Z,4.17
2022-08-07T19:41:44.446Z,4.27
2022-08-07T19:44:22.126Z,6.23
2022-08-07T19:46:55.788Z,4.93
2022-08-07T19:49:58.273Z,7.80
2022-08-07T19:52:18.361Z,5.00
2022-08-07T19:54:55.895Z,4.97
2022-08-07T19:58:02.039Z,4.43
2022-08-07T20:00:27.910Z,4.87
2022-08-07T20:03:02.028Z,5.73
2022-08-07T20:06:00.059Z,6.43
2022-08-07T20:08:24.441Z,5.23
2022-08-07T20:11:01.704Z,5.00
2022-08-07T20:13:38.411Z,6.33
2022-08-07T20:16:22.432Z,5.80
2022-08-07T20:19:04.464Z,5.67
2022-08-07T20:21:41.593Z,6.37
2022-08-07T20:24:18.908Z,6.47
2022-08-07T20:26:52.160Z,5.70
2022-08-07T20:29:48.617Z,5.17
2022-08-07T20:32:22.207Z,5.73
2022-08-07T20:34:53.644Z,5.30
2022-08-07T20:37:24.764Z,9.13
2022-08-07T20:40:03.565Z,6.10
2022-08-07T20:42:39.444Z,4.67
2022-08-07T20:45:33.322Z,7.07
2022-08-07T20:47:59.786Z,5.20
2022-08-07T20:50:30.511Z,6.43
2022-08-07T20:52:59.476Z,4.97
2022-08-07T20:55:28.343Z,11.57
2022-08-07T20:58:09.032Z,5.60
2022-08-07T21:00:48.057Z,5.17
2022-08-07T21:03:23.133Z,6.70
2022-08-07T21:06:00.697Z,5.03
2022-08-07T21:08:37.863Z,5.60
2022-08-07T21:11:14.591Z,7.57
2022-08-07T21:14:16.547Z,7.27
2022-08-07T21:16:56.286Z,6.93
2022-08-07T21:19:51.521Z,5.83
2022-08-07T21:22:28.146Z,7.70
2022-08-07T21:25:12.869Z,5.53
2022-08-07T21:28:16.612Z,5.87
2022-08-07T21:31:02.301Z,7.03
2022-08-07T21:33:41.933Z,6.77
2022-08-07T21:36:31.843Z,5.73
2022-08-07T21:39:47.484Z,5.90
2022-08-07T21:42:37.534Z,7.03
2022-08-07T21:45:42.113Z,6.60
2022-08-07T21:48:07.791Z,7.90
2022-08-07T21:51:01.523Z,6.90
2022-08-07T21:53:37.118Z,7.17
2022-08-07T21:56:36.655Z,6.53
2022-08-07T21:59:11.540Z,10.13
2022-08-07T22:02:10.154Z,8.60
2022-08-07T22:04:53.628Z,7.17
2022-08-07T22:07:42.738Z,8.33
2022-08-07T22:10:17.010Z,9.30
2022-08-07T22:12:49.711Z,6.50
2022-08-07T22:16:35.820Z,8.47
2022-08-07T22:18:16.749Z,8.30
2022-08-07T22:20:53.598Z,8.03
2022-08-07T22:23:27.361Z,7.80
2022-08-07T22:26:05.012Z,6.93
2022-08-07T22:28:48.332Z,6.83
2022-08-07T22:31:59.106Z,6.67
2022-08-07T22:34:28.923Z,6.20
2022-08-07T22:37:12.514Z,7.57
2022-08-07T22:39:52.403Z,7.97
2022-08-07T22:42:25.771Z,7.20
2022-08-07T22:45:00.044Z,6.77
2022-08-07T22:47:52.251Z,7.07
2022-08-07T22:50:36.839Z,8.77
2022-08-07T22:54:04.999Z,8.93
2022-08-07T22:56:19.810Z,9.07
2022-08-07T22:59:20.486Z,8.40
2022-08-07T23:02:00.586Z,9.10
2022-08-07T23:06:08.566Z,11.73
2022-08-07T23:08:30.173Z,11.00
2022-08-07T23:11:13.014Z,7.97
2022-08-07T23:14:10.704Z,8.20
2022-08-07T23:16:55.953Z,7.50
2022-08-07T23:19:57.934Z,8.00
2022-08-07T23:22:39.310Z,7.70
2022-08-07T23:25:28.440Z,8.53
2022-08-07T23:28:21.280Z,7.83
2022-08-07T23:31:18.465Z,9.73
2022-08-07T23:34:37.403Z,8.80
2022-08-07T23:37:29.505Z,7.43
2022-08-07T23:40:09.669Z,8.10
2022-08-07T23:42:54.472Z,8.53
2022-08-07T23:46:03.099Z,8.40
2022-08-07T23:48:44.398Z,7.47
2022-08-07T23:53:11.980Z,8.93
2022-08-07T23:54:20.072Z,7.73
2022-08-07T23:57:22.252Z,8.70
